createdAt,value
2019-03-28T00:00:05.912Z,6.17
2019-03-28T00:01:05.766Z,6.08
2019-03-28T00:02:05.766Z,6.04
2019-03-28T00:03:05.596Z,6.08
2019-03-28T00:04:05.537Z,6.03
2019-03-28T00:05:05.480Z,6.13
2019-03-28T00:06:05.387Z,6.18
2019-03-28T00:07:05.269Z,6.15
2019-03-28T00:08:05.244Z,6.08
2019-03-28T00:09:07.627Z,5.99
2019-03-28T00:10:05.020Z,6.07
2019-03-28T00:11:04.958Z,6.11
2019-03-28T00:12:04.922Z,6.04
2019-03-28T00:13:05.151Z,5.95
2019-03-28T00:14:04.750Z,5.93
2019-03-28T00:15:04.626Z,5.89
2019-03-28T00:16:04.654Z,5.92
2019-03-28T00:17:04.565Z,5.83
2019-03-28T00:18:04.445Z,5.83
2019-03-28T00:19:04.298Z,5.81
2019-03-28T00:20:04.213Z,5.81
2019-03-28T00:21:04.186Z,5.88
2019-03-28T00:22:05.674Z,5.88
2019-03-28T00:23:04.007Z,5.83
2019-03-28T00:24:03.936Z,5.88
2019-03-28T00:25:03.904Z,5.83
2019-03-28T00:26:03.795Z,5.83
2019-03-28T00:27:03.699Z,5.83
2019-03-28T00:28:03.602Z,5.81
2019-03-28T00:29:03.505Z,5.78
2019-03-28T00:30:03.436Z,5.83
2019-03-28T00:31:03.390Z,5.83
2019-03-28T00:32:03.236Z,5.86
2019-03-28T00:33:03.180Z,5.80
2019-03-28T00:34:03.121Z,5.86
2019-03-28T00:35:02.998Z,5.83
2019-03-28T00:36:02.953Z,5.88
2019-03-28T00:37:02.857Z,5.78
2019-03-28T00:38:02.774Z,5.83
2019-03-28T00:39:02.666Z,5.78
2019-03-28T00:40:02.587Z,5.81
2019-03-28T00:41:02.598Z,5.85
2019-03-28T00:42:02.476Z,5.86
2019-03-28T00:43:02.449Z,5.81
2019-03-28T00:44:02.306Z,5.83
2019-03-28T00:45:02.187Z,5.86
2019-03-28T00:46:02.168Z,5.75
2019-03-28T00:47:02.022Z,5.70
2019-03-28T00:48:01.945Z,5.72
2019-03-28T00:49:01.891Z,5.72
2019-03-28T00:50:01.863Z,5.70
2019-03-28T00:51:01.705Z,5.68
2019-03-28T00:52:01.620Z,5.68
2019-03-28T00:53:01.563Z,5.70
2019-03-28T00:54:01.513Z,5.71
2019-03-28T00:55:01.420Z,5.63
2019-03-28T00:56:01.311Z,5.63
2019-03-28T00:57:01.273Z,5.67
2019-03-28T00:58:01.205Z,5.68
2019-03-28T00:59:01.101Z,5.49
2019-03-28T01:00:00.964Z,5.68
2019-03-28T01:01:00.934Z,5.49
2019-03-28T01:02:00.866Z,5.63
2019-03-28T01:03:00.761Z,5.59
2019-03-28T01:04:00.671Z,5.62
2019-03-28T01:05:00.569Z,5.65
2019-03-28T01:06:00.484Z,5.60
2019-03-28T01:07:00.390Z,5.52
2019-03-28T01:08:00.312Z,5.49
2019-03-28T01:09:00.256Z,5.65
2019-03-28T01:10:00.367Z,5.53
2019-03-28T01:11:00.073Z,5.57
2019-03-28T01:12:00.041Z,5.42
2019-03-28T01:12:59.925Z,5.52
2019-03-28T01:13:59.902Z,5.39
2019-03-28T01:14:59.756Z,5.53
2019-03-28T01:15:59.658Z,5.44
2019-03-28T01:16:59.577Z,5.53
2019-03-28T01:17:59.496Z,5.56
2019-03-28T01:18:59.455Z,5.45
2019-03-28T01:20:00.133Z,5.53
2019-03-28T01:20:59.313Z,5.60
2019-03-28T01:21:59.188Z,5.56
2019-03-28T01:22:59.164Z,5.54
2019-03-28T01:23:59.034Z,5.56
2019-03-28T01:24:59.004Z,5.52
2019-03-28T01:25:58.942Z,5.39
2019-03-28T01:26:59.115Z,5.49
2019-03-28T01:27:58.742Z,5.42
2019-03-28T01:28:58.630Z,5.41
2019-03-28T01:29:58.612Z,5.38
2019-03-28T01:30:58.520Z,5.45
2019-03-28T01:31:58.428Z,5.42
2019-03-28T01:32:58.344Z,5.42
2019-03-28T01:33:58.279Z,5.47
2019-03-28T01:34:58.222Z,5.41
2019-03-28T01:35:58.050Z,5.42
2019-03-28T01:36:58.074Z,5.42
2019-03-28T01:37:57.872Z,5.38
2019-03-28T01:38:57.851Z,5.42
2019-03-28T01:39:57.721Z,5.36
2019-03-28T01:40:57.631Z,5.44
2019-03-28T01:41:57.606Z,5.42
2019-03-28T01:42:57.467Z,5.39
2019-03-28T01:43:57.391Z,5.41
2019-03-28T01:44:57.370Z,5.44
2019-03-28T01:45:57.216Z,5.41
2019-03-28T01:46:57.143Z,5.28
2019-03-28T01:47:57.121Z,5.36
2019-03-28T01:48:57.018Z,5.14
2019-03-28T01:49:56.893Z,5.20
2019-03-28T01:50:56.812Z,5.17
2019-03-28T01:51:56.778Z,5.13
2019-03-28T01:52:56.656Z,5.08
2019-03-28T01:53:56.625Z,5.16
2019-03-28T01:54:56.521Z,5.14
2019-03-28T01:55:56.487Z,5.16
2019-03-28T01:56:56.337Z,5.20
2019-03-28T01:57:56.327Z,5.11
2019-03-28T01:58:56.214Z,5.16
2019-03-28T01:59:56.111Z,5.08
2019-03-28T02:00:56.080Z,5.16
2019-03-28T02:01:55.997Z,5.11
2019-03-28T02:02:55.834Z,5.05
2019-03-28T02:03:55.797Z,5.05
2019-03-28T02:04:55.672Z,5.10
2019-03-28T02:05:55.600Z,5.02
2019-03-28T02:06:55.555Z,4.95
2019-03-28T02:07:55.445Z,4.93
2019-03-28T02:08:55.345Z,5.02
2019-03-28T02:09:55.268Z,5.03
2019-03-28T02:10:55.227Z,5.03
2019-03-28T02:11:56.968Z,5.00
2019-03-28T02:12:55.022Z,4.98
2019-03-28T02:13:55.006Z,4.93
2019-03-28T02:14:54.902Z,4.93
2019-03-28T02:15:55.356Z,4.87
2019-03-28T02:16:54.698Z,4.93
2019-03-28T02:17:54.684Z,4.85
2019-03-28T02:18:54.595Z,4.85
2019-03-28T02:19:54.450Z,4.80
2019-03-28T02:20:54.430Z,4.73
2019-03-28T02:21:54.388Z,4.74
2019-03-28T02:22:54.266Z,4.73
2019-03-28T02:23:54.216Z,4.66
2019-03-28T02:24:54.046Z,4.61
2019-03-28T02:25:53.990Z,4.68
2019-03-28T02:26:53.933Z,4.66
2019-03-28T02:27:53.810Z,4.69
2019-03-28T02:28:53.719Z,4.69
2019-03-28T02:29:53.641Z,4.65
2019-03-28T02:30:53.591Z,4.73
2019-03-28T02:31:53.485Z,4.74
2019-03-28T02:32:53.388Z,4.66
2019-03-28T02:33:53.386Z,4.69
2019-03-28T02:34:53.235Z,4.69
2019-03-28T02:35:53.187Z,4.68
2019-03-28T02:36:53.122Z,4.68
2019-03-28T02:37:52.999Z,4.61
2019-03-28T02:38:52.906Z,4.61
2019-03-28T02:39:52.829Z,4.59
2019-03-28T02:40:52.737Z,4.54
2019-03-28T02:41:52.679Z,4.54
2019-03-28T02:42:53.407Z,4.56
2019-03-28T02:43:52.506Z,4.52
2019-03-28T02:44:52.412Z,4.54
2019-03-28T02:45:52.384Z,4.56
2019-03-28T02:46:52.309Z,4.52
2019-03-28T02:47:52.208Z,4.58
2019-03-28T02:48:52.106Z,4.55
2019-03-28T02:49:52.046Z,4.52
2019-03-28T02:50:51.998Z,4.52
2019-03-28T02:51:51.860Z,4.58
2019-03-28T02:52:51.815Z,4.47
2019-03-28T02:53:51.670Z,4.48
2019-03-28T02:54:51.619Z,4.54
2019-03-28T02:55:51.536Z,4.50
2019-03-28T02:56:51.456Z,4.41
2019-03-28T02:57:51.394Z,4.41
2019-03-28T02:58:51.325Z,4.52
2019-03-28T02:59:51.188Z,4.47
2019-03-28T03:00:51.160Z,4.48
2019-03-28T03:01:51.262Z,4.52
2019-03-28T03:02:51.045Z,4.52
2019-03-28T03:03:50.887Z,4.48
2019-03-28T03:04:50.850Z,4.46
2019-03-28T03:05:50.802Z,4.54
2019-03-28T03:06:50.667Z,4.54
2019-03-28T03:07:50.540Z,4.47
2019-03-28T03:08:50.484Z,4.50
2019-03-28T03:09:51.543Z,4.52
2019-03-28T03:10:50.363Z,4.48
2019-03-28T03:11:50.227Z,4.40
2019-03-28T03:12:50.205Z,4.46
2019-03-28T03:13:50.062Z,4.43
2019-03-28T03:14:49.980Z,4.41
2019-03-28T03:15:49.937Z,4.50
2019-03-28T03:16:49.884Z,4.50
2019-03-28T03:17:49.783Z,4.47
2019-03-28T03:18:49.665Z,4.48
2019-03-28T03:19:49.601Z,4.52
2019-03-28T03:20:49.517Z,4.54
2019-03-28T03:21:49.477Z,4.48
2019-03-28T03:22:49.378Z,4.47
2019-03-28T03:23:49.332Z,4.47
2019-03-28T03:24:49.149Z,4.46
2019-03-28T03:25:49.115Z,4.43
2019-03-28T03:26:49.012Z,4.38
2019-03-28T03:27:57.822Z,4.46
2019-03-28T03:28:48.854Z,4.47
2019-03-28T03:29:48.785Z,4.47
2019-03-28T03:30:48.702Z,4.43
2019-03-28T03:31:48.562Z,4.52
2019-03-28T03:32:48.545Z,4.44
2019-03-28T03:33:48.404Z,4.47
2019-03-28T03:34:48.355Z,4.46
2019-03-28T03:35:48.269Z,4.43
2019-03-28T03:36:48.164Z,4.47
2019-03-28T03:37:48.147Z,4.54
2019-03-28T03:38:48.056Z,4.47
2019-03-28T03:39:47.928Z,4.54
2019-03-28T03:40:47.833Z,4.52
2019-03-28T03:41:47.794Z,4.55
2019-03-28T03:42:47.721Z,4.59
2019-03-28T03:43:47.646Z,4.52
2019-03-28T03:44:47.499Z,4.59
2019-03-28T03:45:47.416Z,4.55
2019-03-28T03:46:47.337Z,4.56
2019-03-28T03:47:47.255Z,4.55
2019-03-28T03:48:47.165Z,4.56
2019-03-28T03:49:47.089Z,4.50
2019-03-28T03:50:47.043Z,4.44
2019-03-28T03:51:47.079Z,4.48
2019-03-28T03:52:46.897Z,4.36
2019-03-28T03:53:46.802Z,4.38
2019-03-28T03:54:46.731Z,4.36
2019-03-28T03:55:46.606Z,4.34
2019-03-28T03:56:46.553Z,4.37
2019-03-28T03:57:46.476Z,4.36
2019-03-28T03:58:46.352Z,4.37
2019-03-28T03:59:46.269Z,4.38
2019-03-28T04:00:46.185Z,4.37
2019-03-28T04:01:46.108Z,4.41
2019-03-28T04:02:46.072Z,4.36
2019-03-28T04:03:45.942Z,4.41
2019-03-28T04:04:45.867Z,4.41
2019-03-28T04:05:45.865Z,4.44
2019-03-28T04:06:45.794Z,4.44
2019-03-28T04:07:45.616Z,4.46
2019-03-28T04:08:45.534Z,4.48
2019-03-28T04:09:45.517Z,4.40
2019-03-28T04:10:45.373Z,4.44
2019-03-28T04:11:45.297Z,4.50
2019-03-28T04:12:45.215Z,4.50
2019-03-28T04:13:45.187Z,4.41
2019-03-28T04:14:45.067Z,4.46
2019-03-28T04:15:44.959Z,4.48
2019-03-28T04:16:44.891Z,4.47
2019-03-28T04:17:44.795Z,4.50
2019-03-28T04:18:44.733Z,4.52
2019-03-28T04:19:44.702Z,4.56
2019-03-28T04:20:44.592Z,4.52
2019-03-28T04:21:44.533Z,4.54
2019-03-28T04:22:44.397Z,4.52
2019-03-28T04:23:44.318Z,4.52
2019-03-28T04:24:44.221Z,4.55
2019-03-28T04:25:44.146Z,4.56
2019-03-28T04:26:44.057Z,4.48
2019-03-28T04:27:43.980Z,4.55
2019-03-28T04:28:43.975Z,4.50
2019-03-28T04:29:43.811Z,4.59
2019-03-28T04:30:43.798Z,4.54
2019-03-28T04:31:43.702Z,4.54
2019-03-28T04:32:43.567Z,4.55
2019-03-28T04:33:43.484Z,4.47
2019-03-28T04:34:43.455Z,4.50
2019-03-28T04:35:43.374Z,4.50
2019-03-28T04:36:43.235Z,4.46
2019-03-28T04:37:43.151Z,4.52
2019-03-28T04:38:43.073Z,4.46
2019-03-28T04:39:43.034Z,4.46
2019-03-28T04:40:42.941Z,4.46
2019-03-28T04:41:42.857Z,4.47
2019-03-28T04:42:45.571Z,4.43
2019-03-28T04:43:42.714Z,4.37
2019-03-28T04:44:42.637Z,4.30
2019-03-28T04:45:42.562Z,4.37
2019-03-28T04:46:42.471Z,4.40
2019-03-28T04:47:42.393Z,4.37
2019-03-28T04:48:42.259Z,4.40
2019-03-28T04:49:42.205Z,4.34
2019-03-28T04:50:42.105Z,4.34
2019-03-28T04:51:42.059Z,4.32
2019-03-28T04:52:41.983Z,4.40
2019-03-28T04:53:41.897Z,4.38
2019-03-28T04:54:41.771Z,4.34
2019-03-28T04:55:41.682Z,4.32
2019-03-28T04:56:41.612Z,4.30
2019-03-28T04:57:41.515Z,4.29
2019-03-28T04:58:44.788Z,4.36
2019-03-28T04:59:41.471Z,4.34
2019-03-28T05:00:41.323Z,4.37
2019-03-28T05:01:41.207Z,4.30
2019-03-28T05:02:41.108Z,4.30
2019-03-28T05:03:41.087Z,4.26
2019-03-28T05:04:41.000Z,4.20
2019-03-28T05:05:40.886Z,4.20
2019-03-28T05:06:40.774Z,4.20
2019-03-28T05:07:40.699Z,4.12
2019-03-28T05:08:40.607Z,4.11
2019-03-28T05:09:40.533Z,4.18
2019-03-28T05:10:40.462Z,4.22
2019-03-28T05:11:40.401Z,4.18
2019-03-28T05:12:40.337Z,4.22
2019-03-28T05:13:40.201Z,4.20
2019-03-28T05:14:40.444Z,4.30
2019-03-28T05:15:40.057Z,4.32
2019-03-28T05:16:39.954Z,4.30
2019-03-28T05:17:40.524Z,4.38
2019-03-28T05:18:39.792Z,4.34
2019-03-28T05:19:39.713Z,4.40
2019-03-28T05:20:40.441Z,4.38
2019-03-28T05:21:39.581Z,4.38
2019-03-28T05:22:39.464Z,4.44
2019-03-28T05:23:39.390Z,4.37
2019-03-28T05:24:39.294Z,4.37
2019-03-28T05:25:39.278Z,4.46
2019-03-28T05:26:39.155Z,4.47
2019-03-28T05:27:39.097Z,4.46
2019-03-28T05:28:38.975Z,4.46
2019-03-28T05:29:38.894Z,4.46
2019-03-28T05:30:38.808Z,4.48
2019-03-28T05:31:38.770Z,4.54
2019-03-28T05:32:38.699Z,4.50
2019-03-28T05:33:38.586Z,4.58
2019-03-28T05:34:38.480Z,4.56
2019-03-28T05:35:38.397Z,4.55
2019-03-28T05:36:38.315Z,4.59
2019-03-28T05:37:38.230Z,4.54
2019-03-28T05:38:38.146Z,4.54
2019-03-28T05:39:38.131Z,4.52
2019-03-28T05:40:38.038Z,4.55
2019-03-28T05:41:37.906Z,4.55
2019-03-28T05:42:37.824Z,4.52
2019-03-28T05:43:37.786Z,4.59
2019-03-28T05:44:37.668Z,4.58
2019-03-28T05:45:37.624Z,4.59
2019-03-28T05:46:38.357Z,4.61
2019-03-28T05:47:37.464Z,4.64
2019-03-28T05:48:37.339Z,4.62
2019-03-28T05:49:37.282Z,4.65
2019-03-28T05:50:37.168Z,4.74
2019-03-28T05:51:37.115Z,4.68
2019-03-28T05:52:36.999Z,4.69
2019-03-28T05:53:36.925Z,4.65
2019-03-28T05:54:36.838Z,4.65
2019-03-28T05:55:36.799Z,4.72
2019-03-28T05:56:36.693Z,4.74
2019-03-28T05:57:36.609Z,4.76
2019-03-28T05:58:36.566Z,4.77
2019-03-28T05:59:36.494Z,4.83
2019-03-28T06:00:38.939Z,4.87
2019-03-28T06:01:36.265Z,4.98
2019-03-28T06:02:36.209Z,4.88
2019-03-28T06:03:36.105Z,4.91
2019-03-28T06:04:36.270Z,4.99
2019-03-28T06:05:35.945Z,4.99
2019-03-28T06:06:35.862Z,5.06
2019-03-28T06:07:36.376Z,5.08
2019-03-28T06:08:35.695Z,5.08
2019-03-28T06:09:35.661Z,5.14
2019-03-28T06:10:36.398Z,5.21
2019-03-28T06:11:35.500Z,5.21
2019-03-28T06:12:35.406Z,5.16
2019-03-28T06:13:35.337Z,5.26
2019-03-28T06:14:35.204Z,5.28
2019-03-28T06:15:35.130Z,5.32
2019-03-28T06:16:35.096Z,5.29
2019-03-28T06:17:35.008Z,5.41
2019-03-28T06:18:34.877Z,5.36
2019-03-28T06:19:34.894Z,5.47
2019-03-28T06:20:34.716Z,5.39
2019-03-28T06:21:34.632Z,5.39
2019-03-28T06:22:34.548Z,5.52
2019-03-28T06:23:34.467Z,5.44
2019-03-28T06:24:34.437Z,5.57
2019-03-28T06:25:34.341Z,5.56
2019-03-28T06:26:34.222Z,5.56
2019-03-28T06:27:34.136Z,5.57
2019-03-28T06:28:34.101Z,5.54
2019-03-28T06:29:33.969Z,5.62
2019-03-28T06:30:33.909Z,5.57
2019-03-28T06:31:33.816Z,5.59
2019-03-28T06:32:42.720Z,5.60
2019-03-28T06:33:34.469Z,5.68
2019-03-28T06:34:33.563Z,5.67
2019-03-28T06:35:33.490Z,5.65
2019-03-28T06:36:33.401Z,5.72
2019-03-28T06:37:33.380Z,5.70
2019-03-28T06:38:33.237Z,5.68
2019-03-28T06:39:36.269Z,5.67
2019-03-28T06:40:33.081Z,5.70
2019-03-28T06:41:33.043Z,5.72
2019-03-28T06:42:32.976Z,5.80
2019-03-28T06:43:32.905Z,5.83
2019-03-28T06:44:32.762Z,5.88
2019-03-28T06:45:32.721Z,5.83
2019-03-28T06:46:32.592Z,5.97
2019-03-28T06:47:32.505Z,6.03
2019-03-28T06:48:32.476Z,6.08
2019-03-28T06:49:32.340Z,6.07
2019-03-28T06:50:32.265Z,6.14
2019-03-28T06:51:32.184Z,6.22
2019-03-28T06:52:32.144Z,6.22
2019-03-28T06:53:32.018Z,6.27
2019-03-28T06:54:31.947Z,6.33
2019-03-28T06:55:31.858Z,6.44
2019-03-28T06:56:31.783Z,6.55
2019-03-28T06:57:31.689Z,6.59
2019-03-28T06:58:31.631Z,6.65
2019-03-28T06:59:37.407Z,6.65
2019-03-28T07:00:31.448Z,6.62
2019-03-28T07:01:31.379Z,6.68
2019-03-28T07:02:31.290Z,6.68
2019-03-28T07:03:31.220Z,6.73
2019-03-28T07:04:31.155Z,6.70
2019-03-28T07:05:31.041Z,6.84
2019-03-28T07:06:30.993Z,6.78
2019-03-28T07:07:30.907Z,6.86
2019-03-28T07:08:30.840Z,6.99
2019-03-28T07:09:30.723Z,7.11
2019-03-28T07:10:30.635Z,6.93
2019-03-28T07:11:30.551Z,6.99
2019-03-28T07:12:30.484Z,6.96
2019-03-28T07:13:30.393Z,7.19
2019-03-28T07:14:30.319Z,7.13
2019-03-28T07:15:30.236Z,7.19
2019-03-28T07:16:30.152Z,7.17
2019-03-28T07:17:30.068Z,7.29
2019-03-28T07:18:30.035Z,7.30
2019-03-28T07:19:29.960Z,7.34
2019-03-28T07:20:29.831Z,7.42
2019-03-28T07:21:29.746Z,7.48
2019-03-28T07:22:29.704Z,7.45
2019-03-28T07:23:29.591Z,7.59
2019-03-28T07:24:29.500Z,7.53
2019-03-28T07:25:29.420Z,7.55
2019-03-28T07:26:29.336Z,7.67
2019-03-28T07:27:29.259Z,7.63
2019-03-28T07:28:29.183Z,7.68
2019-03-28T07:29:29.144Z,7.73
2019-03-28T07:30:29.066Z,7.85
2019-03-28T07:31:28.938Z,7.97
2019-03-28T07:32:28.857Z,8.17
2019-03-28T07:33:28.783Z,8.17
2019-03-28T07:34:28.740Z,8.21
2019-03-28T07:35:28.661Z,8.27
2019-03-28T07:36:28.588Z,8.37
2019-03-28T07:37:28.491Z,8.42
2019-03-28T07:38:28.448Z,8.55
2019-03-28T07:39:28.290Z,8.66
2019-03-28T07:40:28.213Z,8.57
2019-03-28T07:41:28.132Z,8.58
2019-03-28T07:42:28.101Z,8.66
2019-03-28T07:43:27.971Z,8.69
2019-03-28T07:44:28.598Z,8.70
2019-03-28T07:45:27.831Z,8.73
2019-03-28T07:46:27.733Z,8.80
2019-03-28T07:47:27.650Z,8.80
2019-03-28T07:48:27.593Z,8.93
2019-03-28T07:49:27.489Z,9.00
2019-03-28T07:50:27.468Z,9.05
2019-03-28T07:51:27.690Z,9.16
2019-03-28T07:52:27.645Z,9.22
2019-03-28T07:53:27.181Z,9.25
2019-03-28T07:54:27.098Z,9.32
2019-03-28T07:55:27.012Z,9.43
2019-03-28T07:56:26.949Z,9.46
2019-03-28T07:57:26.898Z,9.56
2019-03-28T07:58:26.776Z,9.67
2019-03-28T07:59:26.695Z,9.67
2019-03-28T08:00:26.655Z,9.65
2019-03-28T08:01:26.587Z,9.75
2019-03-28T08:02:26.467Z,9.89
2019-03-28T08:03:26.425Z,9.82
2019-03-28T08:04:26.296Z,9.86
2019-03-28T08:05:26.226Z,9.98
2019-03-28T08:06:26.139Z,9.96
2019-03-28T08:07:26.052Z,10.07
2019-03-28T08:08:38.219Z,10.08
2019-03-28T08:09:36.107Z,10.13
2019-03-28T08:10:25.813Z,10.13
2019-03-28T08:11:25.848Z,10.18
2019-03-28T08:12:25.722Z,10.22
2019-03-28T08:13:25.637Z,10.23
2019-03-28T08:14:25.551Z,10.23
2019-03-28T08:15:25.544Z,10.25
2019-03-28T08:16:28.672Z,10.22
2019-03-28T08:17:25.303Z,10.33
2019-03-28T08:18:25.180Z,10.39
2019-03-28T08:19:25.142Z,10.44
2019-03-28T08:20:25.076Z,10.41
2019-03-28T08:21:25.009Z,10.44
2019-03-28T08:22:24.859Z,10.58
2019-03-28T08:23:24.782Z,10.59
2019-03-28T08:24:24.820Z,10.75
2019-03-28T08:25:24.622Z,10.66
2019-03-28T08:26:24.550Z,10.69
2019-03-28T08:27:24.467Z,10.74
2019-03-28T08:28:24.386Z,10.74
2019-03-28T08:29:24.313Z,10.84
2019-03-28T08:30:24.247Z,10.88
2019-03-28T08:31:24.151Z,10.91
2019-03-28T08:32:24.127Z,10.92
2019-03-28T08:33:23.990Z,11.00
2019-03-28T08:34:23.906Z,11.03
2019-03-28T08:35:23.849Z,11.05
2019-03-28T08:36:23.818Z,11.00
2019-03-28T08:37:23.723Z,10.98
2019-03-28T08:38:23.642Z,10.98
2019-03-28T08:39:23.560Z,10.98
2019-03-28T08:40:23.604Z,11.06
2019-03-28T08:41:23.425Z,10.99
2019-03-28T08:42:23.342Z,11.03
2019-03-28T08:43:23.204Z,11.08
2019-03-28T08:44:23.124Z,11.11
2019-03-28T08:45:23.052Z,11.06
2019-03-28T08:46:22.970Z,11.17
2019-03-28T08:47:22.908Z,11.16
2019-03-28T08:48:22.813Z,11.24
2019-03-28T08:49:22.725Z,11.16
2019-03-28T08:50:22.652Z,11.18
2019-03-28T08:51:22.568Z,11.32
2019-03-28T08:52:22.522Z,11.34
2019-03-28T08:53:22.459Z,11.38
2019-03-28T08:54:22.357Z,11.34
2019-03-28T08:55:22.256Z,11.49
2019-03-28T08:56:22.183Z,11.57
2019-03-28T08:57:22.222Z,11.57
2019-03-28T08:58:22.070Z,11.67
2019-03-28T08:59:21.973Z,11.76
2019-03-28T09:00:32.111Z,11.83
2019-03-28T09:01:21.784Z,11.93
2019-03-28T09:02:21.721Z,11.98
2019-03-28T09:03:21.634Z,12.09
2019-03-28T09:04:21.607Z,12.12
2019-03-28T09:05:21.467Z,12.12
2019-03-28T09:06:21.395Z,12.19
2019-03-28T09:07:21.324Z,12.26
2019-03-28T09:08:21.236Z,12.33
2019-03-28T09:09:21.511Z,12.24
2019-03-28T09:10:21.081Z,12.24
2019-03-28T09:11:21.581Z,12.27
2019-03-28T09:12:20.932Z,12.24
2019-03-28T09:13:20.849Z,12.27
2019-03-28T09:14:20.805Z,12.33
2019-03-28T09:15:20.694Z,12.27
2019-03-28T09:16:20.629Z,12.30
2019-03-28T09:17:23.624Z,12.26
2019-03-28T09:18:34.970Z,12.28
2019-03-28T09:19:20.397Z,12.23
2019-03-28T09:20:20.316Z,12.34
2019-03-28T09:21:20.247Z,12.31
2019-03-28T09:22:20.146Z,12.42
2019-03-28T09:23:20.067Z,12.46
2019-03-28T09:24:20.179Z,12.49
2019-03-28T09:25:19.911Z,12.46
2019-03-28T09:26:19.870Z,12.44
2019-03-28T09:27:19.807Z,12.30
2019-03-28T09:28:19.674Z,12.27
2019-03-28T09:29:19.612Z,12.27
2019-03-28T09:30:19.588Z,12.33
2019-03-28T09:31:20.494Z,12.36
2019-03-28T09:32:19.377Z,12.42
2019-03-28T09:33:19.385Z,12.34
2019-03-28T09:34:19.293Z,12.42
2019-03-28T09:35:19.170Z,12.46
2019-03-28T09:36:19.072Z,12.51
2019-03-28T09:37:18.982Z,12.44
2019-03-28T09:38:18.894Z,12.39
2019-03-28T09:39:18.868Z,12.51
2019-03-28T09:40:18.804Z,12.48
2019-03-28T09:41:18.663Z,12.44
2019-03-28T09:42:18.635Z,12.30
2019-03-28T09:43:18.545Z,12.27
2019-03-28T09:44:18.438Z,12.28
2019-03-28T09:45:18.351Z,12.27
2019-03-28T09:46:18.329Z,12.26
2019-03-28T09:47:18.195Z,12.33
2019-03-28T09:48:18.163Z,12.31
2019-03-28T09:49:18.112Z,12.39
2019-03-28T09:50:17.972Z,12.33
2019-03-28T09:51:17.887Z,12.36
2019-03-28T09:52:17.847Z,12.41
2019-03-28T09:53:17.727Z,12.44
2019-03-28T09:54:17.682Z,12.48
2019-03-28T09:55:19.016Z,12.44
2019-03-28T09:56:17.497Z,12.48
2019-03-28T09:57:17.469Z,12.51
2019-03-28T09:58:17.344Z,12.52
2019-03-28T09:59:17.265Z,12.44
2019-03-28T10:00:17.202Z,12.49
2019-03-28T10:01:17.115Z,12.48
2019-03-28T10:02:17.080Z,12.44
2019-03-28T10:03:16.956Z,12.44
2019-03-28T10:04:16.880Z,12.45
2019-03-28T10:05:16.798Z,12.42
2019-03-28T10:06:16.729Z,12.45
2019-03-28T10:07:16.650Z,12.41
2019-03-28T10:08:16.567Z,12.48
2019-03-28T10:09:16.484Z,12.48
2019-03-28T10:10:16.512Z,12.51
2019-03-28T10:11:16.339Z,12.44
2019-03-28T10:12:16.261Z,12.46
2019-03-28T10:13:16.182Z,12.45
2019-03-28T10:14:16.151Z,12.44
2019-03-28T10:15:16.030Z,12.52
2019-03-28T10:16:15.992Z,12.48
2019-03-28T10:17:15.864Z,12.52
2019-03-28T10:18:15.795Z,12.51
2019-03-28T10:19:15.724Z,12.59
2019-03-28T10:20:15.642Z,12.61
2019-03-28T10:21:15.598Z,12.55
2019-03-28T10:22:15.476Z,12.56
2019-03-28T10:23:15.474Z,12.67
2019-03-28T10:24:15.340Z,12.71
2019-03-28T10:25:15.255Z,12.69
2019-03-28T10:26:15.184Z,12.67
2019-03-28T10:27:15.140Z,12.79
2019-03-28T10:28:15.065Z,12.66
2019-03-28T10:29:14.943Z,12.66
2019-03-28T10:30:14.922Z,12.69
2019-03-28T10:31:16.699Z,12.73
2019-03-28T10:32:14.722Z,12.66
2019-03-28T10:33:14.636Z,12.70
2019-03-28T10:34:14.560Z,12.61
2019-03-28T10:35:14.501Z,12.64
2019-03-28T10:36:14.433Z,12.63
2019-03-28T10:37:14.361Z,12.53
2019-03-28T10:38:14.324Z,12.56
2019-03-28T10:39:14.179Z,12.69
2019-03-28T10:40:14.094Z,12.66
2019-03-28T10:41:14.015Z,12.67
2019-03-28T10:42:13.938Z,12.77
2019-03-28T10:43:13.866Z,12.85
2019-03-28T10:44:13.786Z,12.89
2019-03-28T10:45:13.703Z,12.97
2019-03-28T10:46:13.633Z,12.99
2019-03-28T10:47:13.559Z,13.00
2019-03-28T10:48:13.472Z,12.99
2019-03-28T10:49:13.453Z,13.04
2019-03-28T10:50:13.321Z,13.17
2019-03-28T10:51:13.249Z,13.14
2019-03-28T10:52:13.169Z,13.17
2019-03-28T10:53:13.087Z,13.17
2019-03-28T10:54:19.922Z,13.11
2019-03-28T10:55:12.937Z,13.32
2019-03-28T10:56:21.597Z,13.32
2019-03-28T10:57:18.933Z,13.45
2019-03-28T10:58:18.938Z,13.43
2019-03-28T10:59:22.704Z,13.45
2019-03-28T11:00:23.582Z,13.53
2019-03-28T11:01:12.469Z,13.55
2019-03-28T11:02:12.654Z,13.59
2019-03-28T11:03:12.324Z,13.62
2019-03-28T11:04:12.238Z,13.65
2019-03-28T11:05:12.166Z,13.63
2019-03-28T11:06:12.139Z,13.71
2019-03-28T11:07:12.006Z,13.76
2019-03-28T11:08:11.928Z,13.68
2019-03-28T11:09:11.859Z,13.58
2019-03-28T11:10:11.781Z,13.74
2019-03-28T11:11:11.703Z,13.65
2019-03-28T11:12:11.631Z,13.73
2019-03-28T11:13:11.612Z,13.61
2019-03-28T11:14:11.465Z,13.62
2019-03-28T11:15:11.393Z,13.48
2019-03-28T11:16:14.658Z,13.41
2019-03-28T11:17:11.238Z,13.44
2019-03-28T11:18:11.163Z,13.44
2019-03-28T11:19:11.082Z,13.48
2019-03-28T11:20:11.017Z,13.62
2019-03-28T11:21:10.939Z,13.68
2019-03-28T11:22:10.851Z,13.83
2019-03-28T11:23:10.776Z,14.02
2019-03-28T11:24:10.697Z,14.13
2019-03-28T11:25:10.624Z,14.16
2019-03-28T11:26:10.544Z,14.24
2019-03-28T11:27:10.540Z,14.27
2019-03-28T11:28:10.396Z,14.29
2019-03-28T11:29:10.320Z,14.28
2019-03-28T11:30:10.245Z,14.36
2019-03-28T11:31:10.162Z,14.42
2019-03-28T11:32:10.086Z,14.34
2019-03-28T11:33:10.093Z,14.39
2019-03-28T11:34:09.929Z,14.38
2019-03-28T11:35:09.867Z,14.52
2019-03-28T11:36:09.776Z,14.47
2019-03-28T11:37:19.963Z,14.38
2019-03-28T11:38:09.866Z,14.44
2019-03-28T11:39:09.549Z,14.52
2019-03-28T11:40:09.619Z,14.57
2019-03-28T11:41:09.395Z,14.64
2019-03-28T11:42:09.321Z,14.67
2019-03-28T11:43:09.242Z,14.79
2019-03-28T11:44:09.165Z,14.60
2019-03-28T11:45:09.837Z,14.47
2019-03-28T11:46:09.013Z,14.50
2019-03-28T11:47:08.939Z,14.64
2019-03-28T11:48:08.901Z,14.68
2019-03-28T11:49:08.789Z,14.79
2019-03-28T11:50:08.710Z,14.84
2019-03-28T11:51:08.633Z,14.85
2019-03-28T11:52:08.564Z,14.85
2019-03-28T11:53:08.484Z,14.85
2019-03-28T11:54:08.402Z,14.85
2019-03-28T11:55:08.332Z,14.83
2019-03-28T11:56:08.262Z,14.88
2019-03-28T11:57:08.173Z,14.74
2019-03-28T11:58:08.099Z,14.61
2019-03-28T11:59:08.026Z,14.46
2019-03-28T12:00:07.948Z,14.54
2019-03-28T12:01:07.871Z,14.36
2019-03-28T12:02:19.540Z,14.34
2019-03-28T12:03:07.718Z,14.27
2019-03-28T12:04:09.495Z,14.02
2019-03-28T12:05:07.574Z,13.98
2019-03-28T12:06:07.533Z,14.02
2019-03-28T12:07:07.446Z,14.02
2019-03-28T12:08:07.340Z,14.01
2019-03-28T12:09:07.261Z,14.05
2019-03-28T12:10:07.206Z,14.07
2019-03-28T12:11:07.127Z,14.11
2019-03-28T12:12:07.038Z,14.11
2019-03-28T12:13:06.964Z,14.17
2019-03-28T12:14:06.885Z,14.17
2019-03-28T12:15:06.823Z,14.19
2019-03-28T12:16:06.724Z,14.13
2019-03-28T12:17:06.659Z,14.19
2019-03-28T12:18:06.578Z,14.19
2019-03-28T12:19:06.500Z,14.14
2019-03-28T12:20:06.425Z,14.11
2019-03-28T12:21:06.343Z,13.98
2019-03-28T12:22:06.271Z,13.99
2019-03-28T12:23:06.191Z,13.99
2019-03-28T12:24:06.121Z,13.89
2019-03-28T12:25:06.045Z,13.98
2019-03-28T12:26:06.009Z,13.95
2019-03-28T12:27:05.887Z,14.01
2019-03-28T12:28:05.816Z,13.99
2019-03-28T12:29:06.004Z,13.94
2019-03-28T12:30:05.659Z,13.96
2019-03-28T12:31:05.605Z,13.94
2019-03-28T12:32:13.921Z,13.95
2019-03-28T12:33:05.450Z,13.99
2019-03-28T12:34:05.359Z,14.02
2019-03-28T12:35:05.279Z,13.87
2019-03-28T12:36:05.208Z,13.92
2019-03-28T12:37:05.119Z,13.73
2019-03-28T12:38:05.045Z,13.66
2019-03-28T12:39:04.971Z,13.62
2019-03-28T12:40:04.893Z,13.53
2019-03-28T12:41:04.817Z,13.53
2019-03-28T12:42:04.744Z,13.47
2019-03-28T12:43:04.664Z,13.44
2019-03-28T12:44:04.590Z,13.52
2019-03-28T12:45:04.526Z,13.48
2019-03-28T12:46:04.485Z,13.41
2019-03-28T12:47:04.375Z,13.40
2019-03-28T12:48:04.283Z,13.38
2019-03-28T12:49:04.200Z,13.37
2019-03-28T12:50:04.129Z,13.38
2019-03-28T12:51:04.048Z,13.43
2019-03-28T12:52:03.978Z,13.48
2019-03-28T12:53:03.898Z,13.63
2019-03-28T12:54:03.893Z,13.70
2019-03-28T12:55:03.749Z,13.63
2019-03-28T12:56:03.665Z,13.78
2019-03-28T12:57:04.897Z,13.66
2019-03-28T12:58:03.559Z,13.76
2019-03-28T12:59:03.437Z,13.86
2019-03-28T13:00:03.364Z,13.83
2019-03-28T13:01:03.281Z,13.95
2019-03-28T13:02:03.214Z,13.89
2019-03-28T13:03:03.143Z,13.94
2019-03-28T13:04:03.057Z,13.96
2019-03-28T13:05:02.977Z,13.98
2019-03-28T13:06:02.909Z,13.81
2019-03-28T13:07:02.839Z,13.74